PWSweather.com
Personal Weather Stations
Station Observations

SkegnessGB

Lat: 53.147585, Lon: 0.345774

Elevation: 18

Station Type: Fine Offset WH3080

http://www.skegnessweather.info/

High Low Average
Temperature 50.5°F10.3°C 45.0°F7.2°C 48.1°F8.9°C
Dew Point 49.3°F9.6°C 40.7°F4.8°C 44.9°F7.2°C
Winds 20.5 mph 33.0 kmh 2.0 mph 3.2 kmh 12.0 mph NE19.3 kmh NE
Wind Gusts 21.7 mph34.9 kmh 3.4 mph5.5 kmh 14.0 mph22.5 kmh
Humidity 100% 83% 89%
Pressure 30.41 in1029.8 mb 30.20 in1022.7 mb -
Precipitation 0.00 in0.0 mm - -
Hour Temp Dew Point Humidity Winds Wind Gusts Pressure Precip Precip Rate Daily Precip Total
12:00 AM 45.3°F7.4°C 45.3°F7.4°C 100% 4.1 mph NE6.6 kmh NE 5.9 mph9.5 kmh 30.21 in1023.0 mb 0.00 in0.0 mm 0.00 in0.0 mm 0.00 in0.0 mm
12:10 AM 45.5°F7.5°C 45.5°F7.5°C 100% 4.9 mph NNE7.9 kmh NNE 5.9 mph9.5 kmh 30.21 in1023.0 mb 0.00 in0.0 mm 0.00 in0.0 mm 0.00 in0.0 mm
12:20 AM 45.5°F7.5°C 45.5°F7.5°C 100% 3.7 mph NE6.0 kmh NE 4.9 mph7.9 kmh 30.21 in1023.0 mb 0.00 in0.0 mm 0.00 in0.0 mm 0.00 in0.0 mm
12:30 AM 45.3°F7.4°C 45.3°F7.4°C 100% 2.8 mph NE4.5 kmh NE 4.2 mph6.8 kmh 30.21 in1023.0 mb 0.00 in0.0 mm 0.00 in0.0 mm 0.00 in0.0 mm
12:40 AM 45.3°F7.4°C 45.3°F7.4°C 100% 4.4 mph NE7.1 kmh NE 5.9 mph9.5 kmh 30.21 in1023.0 mb 0.00 in0.0 mm 0.00 in0.0 mm 0.00 in0.0 mm
12:50 AM 45.5°F7.5°C 45.5°F7.5°C 100% 4.6 mph NE7.4 kmh NE 6.6 mph10.6 kmh 30.21 in1023.0 mb 0.00 in0.0 mm 0.00 in0.0 mm 0.00 in0.0 mm
01:00 AM 45.5°F7.5°C 45.5°F7.5°C 100% 4.7 mph NE7.6 kmh NE 5.9 mph9.5 kmh 30.21 in1023.0 mb 0.00 in0.0 mm 0.00 in0.0 mm 0.00 in0.0 mm
01:10 AM 45.5°F7.5°C 45.5°F7.5°C 100% 3.8 mph NNE6.1 kmh NNE 4.9 mph7.9 kmh 30.20 in1022.7 mb 0.00 in0.0 mm 0.00 in0.0 mm 0.00 in0.0 mm
01:20 AM 45.7°F7.6°C 45.7°F7.6°C 100% 4.2 mph NNE6.8 kmh NNE 4.9 mph7.9 kmh 30.20 in1022.7 mb 0.00 in0.0 mm 0.00 in0.0 mm 0.00 in0.0 mm
01:30 AM 45.7°F7.6°C 45.7°F7.6°C 100% 3.6 mph NE5.8 kmh NE 4.2 mph6.8 kmh 30.21 in1023.0 mb 0.00 in0.0 mm 0.00 in0.0 mm 0.00 in0.0 mm
01:40 AM 45.9°F7.7°C 45.9°F7.7°C 100% 2.5 mph NNE4.0 kmh NNE 3.4 mph5.5 kmh 30.21 in1023.0 mb 0.00 in0.0 mm 0.00 in0.0 mm 0.00 in0.0 mm
01:50 AM 45.7°F7.6°C 45.7°F7.6°C 100% 2.0 mph NNE3.2 kmh NNE 3.4 mph5.5 kmh 30.21 in1023.0 mb 0.00 in0.0 mm 0.00 in0.0 mm 0.00 in0.0 mm
02:00 AM 45.7°F7.6°C 45.7°F7.6°C 100% 3.7 mph NE6.0 kmh NE 4.2 mph6.8 kmh 30.21 in1023.0 mb 0.00 in0.0 mm 0.00 in0.0 mm 0.00 in0.0 mm
02:10 AM 45.5°F7.5°C 45.5°F7.5°C 100% 4.1 mph NNE6.6 kmh NNE 4.9 mph7.9 kmh 30.21 in1023.0 mb 0.00 in0.0 mm 0.00 in0.0 mm 0.00 in0.0 mm
02:20 AM 45.5°F7.5°C 45.2°F7.3°C 99% 3.5 mph N5.6 kmh N 4.2 mph6.8 kmh 30.21 in1023.0 mb 0.00 in0.0 mm 0.00 in0.0 mm 0.00 in0.0 mm
02:30 AM 45.5°F7.5°C 45.2°F7.3°C 99% 4.0 mph NNE6.4 kmh NNE 4.2 mph6.8 kmh 30.22 in1023.4 mb 0.00 in0.0 mm 0.00 in0.0 mm 0.00 in0.0 mm
02:40 AM 45.9°F7.7°C 45.6°F7.6°C 99% 3.8 mph NNE6.1 kmh NNE 4.9 mph7.9 kmh 30.21 in1023.0 mb 0.00 in0.0 mm 0.00 in0.0 mm 0.00 in0.0 mm
02:50 AM 46.0°F7.8°C 45.5°F7.5°C 98% 4.2 mph NE6.8 kmh NE 4.9 mph7.9 kmh 30.22 in1023.4 mb 0.00 in0.0 mm 0.00 in0.0 mm 0.00 in0.0 mm
03:00 AM 46.4°F8.0°C 45.3°F7.4°C 96% 5.5 mph NE8.9 kmh NE 5.9 mph9.5 kmh 30.22 in1023.4 mb 0.00 in0.0 mm 0.00 in0.0 mm 0.00 in0.0 mm
03:10 AM 46.8°F8.2°C 45.1°F7.3°C 94% 7.1 mph E11.4 kmh E 6.6 mph10.6 kmh 30.22 in1023.4 mb 0.00 in0.0 mm 0.00 in0.0 mm 0.00 in0.0 mm
03:20 AM 48.0°F8.9°C 46.4°F8.0°C 94% 7.1 mph N11.4 kmh N 11.8 mph19.0 kmh 30.22 in1023.4 mb 0.00 in0.0 mm 0.00 in0.0 mm 0.00 in0.0 mm
03:30 AM 48.7°F9.3°C 47.9°F8.8°C 97% 10.8 mph N17.4 kmh N 12.5 mph20.1 kmh 30.22 in1023.4 mb 0.00 in0.0 mm 0.00 in0.0 mm 0.00 in0.0 mm
03:40 AM 49.3°F9.6°C 49.3°F9.6°C 100% 11.7 mph NNE18.8 kmh NNE 12.5 mph20.1 kmh 30.22 in1023.4 mb 0.00 in0.0 mm 0.00 in0.0 mm 0.00 in0.0 mm
03:50 AM 49.3°F9.6°C 49.3°F9.6°C 100% 12.5 mph NE20.1 kmh NE 14.3 mph23.0 kmh 30.23 in1023.7 mb 0.00 in0.0 mm 0.00 in0.0 mm 0.00 in0.0 mm
04:00 AM 49.3°F9.6°C 49.3°F9.6°C 100% 9.6 mph N15.4 kmh N 11.8 mph19.0 kmh 30.23 in1023.7 mb 0.00 in0.0 mm 0.00 in0.0 mm 0.00 in0.0 mm
04:10 AM 49.1°F9.5°C 49.1°F9.5°C 100% 9.2 mph E14.8 kmh E 14.3 mph23.0 kmh 30.23 in1023.7 mb 0.00 in0.0 mm 0.00 in0.0 mm 0.00 in0.0 mm
04:20 AM 48.9°F9.4°C 48.9°F9.4°C 100% 12.7 mph NNE20.4 kmh NNE 15.0 mph24.1 kmh 30.23 in1023.7 mb 0.00 in0.0 mm 0.00 in0.0 mm 0.00 in0.0 mm
04:30 AM 48.7°F9.3°C 48.7°F9.3°C 100% 14.1 mph NNE22.7 kmh NNE 16.7 mph26.9 kmh 30.25 in1024.4 mb 0.00 in0.0 mm 0.00 in0.0 mm 0.00 in0.0 mm
04:40 AM 48.7°F9.3°C 48.7°F9.3°C 100% 13.0 mph NE20.9 kmh NE 12.5 mph20.1 kmh 30.25 in1024.4 mb 0.00 in0.0 mm 0.00 in0.0 mm 0.00 in0.0 mm
04:50 AM 48.6°F9.2°C 48.6°F9.2°C 100% 12.2 mph NNE19.6 kmh NNE 14.3 mph23.0 kmh 30.25 in1024.4 mb 0.00 in0.0 mm 0.00 in0.0 mm 0.00 in0.0 mm
05:00 AM 48.6°F9.2°C 48.6°F9.2°C 100% 14.2 mph NNE22.9 kmh NNE 15.0 mph24.1 kmh 30.25 in1024.4 mb 0.00 in0.0 mm 0.00 in0.0 mm 0.00 in0.0 mm
05:10 AM 48.6°F9.2°C 48.6°F9.2°C 100% 13.2 mph NNE21.2 kmh NNE 14.3 mph23.0 kmh 30.25 in1024.4 mb 0.00 in0.0 mm 0.00 in0.0 mm 0.00 in0.0 mm
05:20 AM 48.6°F9.2°C 48.6°F9.2°C 100% 13.7 mph NE22.0 kmh NE 13.3 mph21.4 kmh 30.25 in1024.4 mb 0.00 in0.0 mm 0.00 in0.0 mm 0.00 in0.0 mm
05:30 AM 48.6°F9.2°C 48.0°F8.9°C 98% 12.9 mph N20.8 kmh N 16.0 mph25.7 kmh 30.25 in1024.4 mb 0.00 in0.0 mm 0.00 in0.0 mm 0.00 in0.0 mm
05:40 AM 48.6°F9.2°C 47.5°F8.6°C 96% 14.2 mph NE22.9 kmh NE 14.3 mph23.0 kmh 30.27 in1025.1 mb 0.00 in0.0 mm 0.00 in0.0 mm 0.00 in0.0 mm
05:50 AM 48.7°F9.3°C 47.1°F8.4°C 94% 13.5 mph NE21.7 kmh NE 17.5 mph28.2 kmh 30.27 in1025.1 mb 0.00 in0.0 mm 0.00 in0.0 mm 0.00 in0.0 mm
06:00 AM 48.7°F9.3°C 46.8°F8.2°C 93% 12.5 mph NE20.1 kmh NE 14.3 mph23.0 kmh 30.27 in1025.1 mb 0.00 in0.0 mm 0.00 in0.0 mm 0.00 in0.0 mm
06:10 AM 48.7°F9.3°C 46.5°F8.1°C 92% 9.0 mph NE14.5 kmh NE 15.0 mph24.1 kmh 30.28 in1025.4 mb 0.00 in0.0 mm 0.00 in0.0 mm 0.00 in0.0 mm
06:20 AM 48.7°F9.3°C 46.5°F8.1°C 92% 12.7 mph NNE20.4 kmh NNE 15.0 mph24.1 kmh 30.28 in1025.4 mb 0.00 in0.0 mm 0.00 in0.0 mm 0.00 in0.0 mm
06:30 AM 49.1°F9.5°C 46.6°F8.1°C 91% 12.4 mph NNE20.0 kmh NNE 12.5 mph20.1 kmh 30.29 in1025.7 mb 0.00 in0.0 mm 0.00 in0.0 mm 0.00 in0.0 mm
06:40 AM 49.3°F9.6°C 46.8°F8.2°C 91% 13.0 mph NNE20.9 kmh NNE 11.8 mph19.0 kmh 30.29 in1025.7 mb 0.00 in0.0 mm 0.00 in0.0 mm 0.00 in0.0 mm
06:50 AM 49.6°F9.8°C 46.8°F8.2°C 90% 12.2 mph NE19.6 kmh NE 14.3 mph23.0 kmh 30.29 in1025.7 mb 0.00 in0.0 mm 0.00 in0.0 mm 0.00 in0.0 mm
07:00 AM 49.8°F9.9°C 46.4°F8.0°C 88% 15.0 mph NE24.1 kmh NE 17.5 mph28.2 kmh 30.30 in1026.1 mb 0.00 in0.0 mm 0.00 in0.0 mm 0.00 in0.0 mm
07:10 AM 50.0°F10.0°C 46.0°F7.8°C 86% 14.2 mph N22.9 kmh N 16.0 mph25.7 kmh 30.30 in1026.1 mb 0.00 in0.0 mm 0.00 in0.0 mm 0.00 in0.0 mm
07:20 AM 49.8°F9.9°C 45.8°F7.7°C 86% 13.1 mph NNE21.1 kmh NNE 14.3 mph23.0 kmh 30.30 in1026.1 mb 0.00 in0.0 mm 0.00 in0.0 mm 0.00 in0.0 mm
07:30 AM 49.6°F9.8°C 45.6°F7.6°C 86% 12.1 mph NE19.5 kmh NE 16.0 mph25.7 kmh 30.30 in1026.1 mb 0.00 in0.0 mm 0.00 in0.0 mm 0.00 in0.0 mm
07:40 AM 49.5°F9.7°C 45.4°F7.4°C 86% 12.9 mph NE20.8 kmh NE 18.5 mph29.8 kmh 30.31 in1026.4 mb 0.00 in0.0 mm 0.00 in0.0 mm 0.00 in0.0 mm
07:50 AM 49.5°F9.7°C 45.4°F7.4°C 86% 14.2 mph NE22.9 kmh NE 16.0 mph25.7 kmh 30.31 in1026.4 mb 0.00 in0.0 mm 0.00 in0.0 mm 0.00 in0.0 mm
08:00 AM 49.5°F9.7°C 45.4°F7.4°C 86% 14.8 mph NNE23.8 kmh NNE 20.9 mph33.6 kmh 30.32 in1026.8 mb 0.00 in0.0 mm 0.00 in0.0 mm 0.00 in0.0 mm
08:10 AM 49.5°F9.7°C 45.8°F7.7°C 87% 20.5 mph N33.0 kmh N 20.9 mph33.6 kmh 30.31 in1026.4 mb 0.00 in0.0 mm 0.00 in0.0 mm 0.00 in0.0 mm
08:20 AM 49.6°F9.8°C 45.9°F7.7°C 87% 14.4 mph NE23.2 kmh NE 17.5 mph28.2 kmh 30.31 in1026.4 mb 0.00 in0.0 mm 0.00 in0.0 mm 0.00 in0.0 mm
08:30 AM 50.0°F10.0°C 46.0°F7.8°C 86% 14.1 mph NNE22.7 kmh NNE 21.7 mph34.9 kmh 30.32 in1026.8 mb 0.00 in0.0 mm 0.00 in0.0 mm 0.00 in0.0 mm
08:40 AM 50.0°F10.0°C 46.0°F7.8°C 86% 16.6 mph NNE26.7 kmh NNE 17.5 mph28.2 kmh 30.32 in1026.8 mb 0.00 in0.0 mm 0.00 in0.0 mm 0.00 in0.0 mm
08:50 AM 50.2°F10.1°C 46.5°F8.1°C 87% 14.4 mph NE23.2 kmh NE 16.7 mph26.9 kmh 30.33 in1027.1 mb 0.00 in0.0 mm 0.00 in0.0 mm 0.00 in0.0 mm
09:00 AM 50.2°F10.1°C 46.5°F8.1°C 87% 14.0 mph NE22.5 kmh NE 16.0 mph25.7 kmh 30.33 in1027.1 mb 0.00 in0.0 mm 0.00 in0.0 mm 0.00 in0.0 mm
09:10 AM 50.0°F10.0°C 46.6°F8.1°C 88% 15.6 mph NNE25.1 kmh NNE 16.0 mph25.7 kmh 30.33 in1027.1 mb 0.00 in0.0 mm 0.00 in0.0 mm 0.00 in0.0 mm
09:20 AM 50.0°F10.0°C 46.6°F8.1°C 88% 15.5 mph NNE24.9 kmh NNE 16.7 mph26.9 kmh 30.34 in1027.4 mb 0.00 in0.0 mm 0.00 in0.0 mm 0.00 in0.0 mm
09:30 AM 49.8°F9.9°C 46.4°F8.0°C 88% 14.7 mph N23.7 kmh N 16.0 mph25.7 kmh 30.33 in1027.1 mb 0.00 in0.0 mm 0.00 in0.0 mm 0.00 in0.0 mm
09:40 AM 49.8°F9.9°C 46.7°F8.2°C 89% 15.1 mph NNE24.3 kmh NNE 16.0 mph25.7 kmh 30.34 in1027.4 mb 0.00 in0.0 mm 0.00 in0.0 mm 0.00 in0.0 mm
09:50 AM 49.8°F9.9°C 46.7°F8.2°C 89% 14.3 mph NNE23.0 kmh NNE 16.0 mph25.7 kmh 30.34 in1027.4 mb 0.00 in0.0 mm 0.00 in0.0 mm 0.00 in0.0 mm
10:00 AM 49.6°F9.8°C 46.2°F7.9°C 88% 16.9 mph NE27.2 kmh NE 18.5 mph29.8 kmh 30.35 in1027.8 mb 0.00 in0.0 mm 0.00 in0.0 mm 0.00 in0.0 mm
10:10 AM 50.2°F10.1°C 47.1°F8.4°C 89% 15.1 mph NE24.3 kmh NE 19.2 mph30.9 kmh 30.34 in1027.4 mb 0.00 in0.0 mm 0.00 in0.0 mm 0.00 in0.0 mm
10:20 AM 50.0°F10.0°C 46.6°F8.1°C 88% 16.0 mph NNE25.7 kmh NNE 17.5 mph28.2 kmh 30.35 in1027.8 mb 0.00 in0.0 mm 0.00 in0.0 mm 0.00 in0.0 mm
10:30 AM 50.4°F10.2°C 46.6°F8.1°C 87% 14.1 mph NE22.7 kmh NE 16.0 mph25.7 kmh 30.35 in1027.8 mb 0.00 in0.0 mm 0.00 in0.0 mm 0.00 in0.0 mm
10:40 AM 50.4°F10.2°C 46.3°F7.9°C 86% 15.4 mph N24.8 kmh N 17.5 mph28.2 kmh 30.35 in1027.8 mb 0.00 in0.0 mm 0.00 in0.0 mm 0.00 in0.0 mm
10:50 AM 50.2°F10.1°C 46.2°F7.9°C 86% 15.7 mph NNE25.3 kmh NNE 16.7 mph26.9 kmh 30.35 in1027.8 mb 0.00 in0.0 mm 0.00 in0.0 mm 0.00 in0.0 mm
11:00 AM 50.2°F10.1°C 46.5°F8.1°C 87% 15.3 mph NE24.6 kmh NE 16.7 mph26.9 kmh 30.36 in1028.1 mb 0.00 in0.0 mm 0.00 in0.0 mm 0.00 in0.0 mm
11:10 AM 50.4°F10.2°C 46.6°F8.1°C 87% 15.1 mph NE24.3 kmh NE 17.5 mph28.2 kmh 30.36 in1028.1 mb 0.00 in0.0 mm 0.00 in0.0 mm 0.00 in0.0 mm
11:20 AM 50.4°F10.2°C 46.6°F8.1°C 87% 17.0 mph N27.4 kmh N 17.5 mph28.2 kmh 30.36 in1028.1 mb 0.00 in0.0 mm 0.00 in0.0 mm 0.00 in0.0 mm
11:30 AM 50.4°F10.2°C 46.3°F7.9°C 86% 15.3 mph NNE24.6 kmh NNE 14.3 mph23.0 kmh 30.36 in1028.1 mb 0.00 in0.0 mm 0.00 in0.0 mm 0.00 in0.0 mm
11:40 AM 50.2°F10.1°C 46.2°F7.9°C 86% 15.7 mph NNE25.3 kmh NNE 16.7 mph26.9 kmh 30.37 in1028.4 mb 0.00 in0.0 mm 0.00 in0.0 mm 0.00 in0.0 mm
11:50 AM 50.5°F10.3°C 46.5°F8.1°C 86% 14.0 mph NE22.5 kmh NE 18.5 mph29.8 kmh 30.37 in1028.4 mb 0.00 in0.0 mm 0.00 in0.0 mm 0.00 in0.0 mm
12:00 PM 50.4°F10.2°C 46.3°F7.9°C 86% 14.5 mph NNE23.3 kmh NNE 17.5 mph28.2 kmh 30.37 in1028.4 mb 0.00 in0.0 mm 0.00 in0.0 mm 0.00 in0.0 mm
12:10 PM 50.0°F10.0°C 46.0°F7.8°C 86% 13.9 mph N22.4 kmh N 16.0 mph25.7 kmh 30.37 in1028.4 mb 0.00 in0.0 mm 0.00 in0.0 mm 0.00 in0.0 mm
12:20 PM 50.2°F10.1°C 46.2°F7.9°C 86% 13.6 mph NNE21.9 kmh NNE 15.0 mph24.1 kmh 30.38 in1028.8 mb 0.00 in0.0 mm 0.00 in0.0 mm 0.00 in0.0 mm
12:30 PM 49.6°F9.8°C 45.6°F7.6°C 86% 15.5 mph NE24.9 kmh NE 15.0 mph24.1 kmh 30.37 in1028.4 mb 0.00 in0.0 mm 0.00 in0.0 mm 0.00 in0.0 mm
12:40 PM 49.6°F9.8°C 45.6°F7.6°C 86% 15.2 mph NE24.5 kmh NE 16.0 mph25.7 kmh 30.38 in1028.8 mb 0.00 in0.0 mm 0.00 in0.0 mm 0.00 in0.0 mm
12:50 PM 49.5°F9.7°C 45.4°F7.4°C 86% 15.5 mph NNE24.9 kmh NNE 16.7 mph26.9 kmh 30.38 in1028.8 mb 0.00 in0.0 mm 0.00 in0.0 mm 0.00 in0.0 mm
01:00 PM 49.8°F9.9°C 45.5°F7.5°C 85% 15.6 mph NNE25.1 kmh NNE 17.5 mph28.2 kmh 30.38 in1028.8 mb 0.00 in0.0 mm 0.00 in0.0 mm 0.00 in0.0 mm
01:10 PM 50.0°F10.0°C 45.7°F7.6°C 85% 14.1 mph NNE22.7 kmh NNE 18.5 mph29.8 kmh 30.38 in1028.8 mb 0.00 in0.0 mm 0.00 in0.0 mm 0.00 in0.0 mm
01:20 PM 49.6°F9.8°C 45.3°F7.4°C 85% 15.8 mph NE25.4 kmh NE 16.7 mph26.9 kmh 30.38 in1028.8 mb 0.00 in0.0 mm 0.00 in0.0 mm 0.00 in0.0 mm
01:30 PM 49.6°F9.8°C 45.3°F7.4°C 85% 14.8 mph NNE23.8 kmh NNE 18.5 mph29.8 kmh 30.38 in1028.8 mb 0.00 in0.0 mm 0.00 in0.0 mm 0.00 in0.0 mm
01:40 PM 49.6°F9.8°C 45.0°F7.2°C 84% 16.0 mph NNE25.7 kmh NNE 16.7 mph26.9 kmh 30.38 in1028.8 mb 0.00 in0.0 mm 0.00 in0.0 mm 0.00 in0.0 mm
01:50 PM 49.5°F9.7°C 44.8°F7.1°C 84% 15.3 mph NE24.6 kmh NE 20.9 mph33.6 kmh 30.38 in1028.8 mb 0.00 in0.0 mm 0.00 in0.0 mm 0.00 in0.0 mm
02:00 PM 49.6°F9.8°C 45.0°F7.2°C 84% 14.5 mph NNE23.3 kmh NNE 20.9 mph33.6 kmh 30.38 in1028.8 mb 0.00 in0.0 mm 0.00 in0.0 mm 0.00 in0.0 mm
02:10 PM 50.2°F10.1°C 45.5°F7.5°C 84% 13.1 mph NE21.1 kmh NE 11.8 mph19.0 kmh 30.39 in1029.1 mb 0.00 in0.0 mm 0.00 in0.0 mm 0.00 in0.0 mm
02:20 PM 50.0°F10.0°C 45.0°F7.2°C 83% 15.2 mph NE24.5 kmh NE 16.7 mph26.9 kmh 30.38 in1028.8 mb 0.00 in0.0 mm 0.00 in0.0 mm 0.00 in0.0 mm
02:30 PM 50.2°F10.1°C 45.5°F7.5°C 84% 14.2 mph NE22.9 kmh NE 17.5 mph28.2 kmh 30.38 in1028.8 mb 0.00 in0.0 mm 0.00 in0.0 mm 0.00 in0.0 mm
02:40 PM 50.2°F10.1°C 45.2°F7.3°C 83% 14.1 mph NE22.7 kmh NE 15.0 mph24.1 kmh 30.39 in1029.1 mb 0.00 in0.0 mm 0.00 in0.0 mm 0.00 in0.0 mm
02:50 PM 50.0°F10.0°C 45.0°F7.2°C 83% 13.7 mph NE22.0 kmh NE 14.3 mph23.0 kmh 30.39 in1029.1 mb 0.00 in0.0 mm 0.00 in0.0 mm 0.00 in0.0 mm
03:00 PM 49.8°F9.9°C 45.2°F7.3°C 84% 13.7 mph NNE22.0 kmh NNE 17.5 mph28.2 kmh 30.39 in1029.1 mb 0.00 in0.0 mm 0.00 in0.0 mm 0.00 in0.0 mm
03:10 PM 50.0°F10.0°C 45.0°F7.2°C 83% 13.9 mph N22.4 kmh N 16.0 mph25.7 kmh 30.39 in1029.1 mb 0.00 in0.0 mm 0.00 in0.0 mm 0.00 in0.0 mm
03:20 PM 50.2°F10.1°C 45.2°F7.3°C 83% 12.8 mph NNE20.6 kmh NNE 16.7 mph26.9 kmh 30.39 in1029.1 mb 0.00 in0.0 mm 0.00 in0.0 mm 0.00 in0.0 mm
03:30 PM 50.0°F10.0°C 45.0°F7.2°C 83% 13.4 mph NNE21.6 kmh NNE 16.7 mph26.9 kmh 30.38 in1028.8 mb 0.00 in0.0 mm 0.00 in0.0 mm 0.00 in0.0 mm
03:40 PM 49.6°F9.8°C 44.7°F7.1°C 83% 15.2 mph NNE24.5 kmh NNE 16.7 mph26.9 kmh 30.38 in1028.8 mb 0.00 in0.0 mm 0.00 in0.0 mm 0.00 in0.0 mm
03:50 PM 49.6°F9.8°C 44.7°F7.1°C 83% 14.0 mph N22.5 kmh N 15.0 mph24.1 kmh 30.38 in1028.8 mb 0.00 in0.0 mm 0.00 in0.0 mm 0.00 in0.0 mm
04:00 PM 49.8°F9.9°C 44.9°F7.2°C 83% 14.2 mph NE22.9 kmh NE 16.0 mph25.7 kmh 30.38 in1028.8 mb 0.00 in0.0 mm 0.00 in0.0 mm 0.00 in0.0 mm
04:10 PM 49.6°F9.8°C 44.7°F7.1°C 83% 14.6 mph NE23.5 kmh NE 20.9 mph33.6 kmh 30.39 in1029.1 mb 0.00 in0.0 mm 0.00 in0.0 mm 0.00 in0.0 mm
04:20 PM 49.5°F9.7°C 44.5°F6.9°C 83% 13.3 mph NE21.4 kmh NE 15.0 mph24.1 kmh 30.39 in1029.1 mb 0.00 in0.0 mm 0.00 in0.0 mm 0.00 in0.0 mm
04:30 PM 49.1°F9.5°C 44.5°F6.9°C 84% 14.2 mph NNE22.9 kmh NNE 14.3 mph23.0 kmh 30.39 in1029.1 mb 0.00 in0.0 mm 0.00 in0.0 mm 0.00 in0.0 mm
04:40 PM 49.1°F9.5°C 44.5°F6.9°C 84% 11.4 mph ENE18.3 kmh ENE 12.5 mph20.1 kmh 30.39 in1029.1 mb 0.00 in0.0 mm 0.00 in0.0 mm 0.00 in0.0 mm
04:50 PM 48.7°F9.3°C 44.1°F6.7°C 84% 13.4 mph NE21.6 kmh NE 15.0 mph24.1 kmh 30.39 in1029.1 mb 0.00 in0.0 mm 0.00 in0.0 mm 0.00 in0.0 mm
05:00 PM 48.6°F9.2°C 43.9°F6.6°C 84% 13.8 mph NNE22.2 kmh NNE 16.0 mph25.7 kmh 30.39 in1029.1 mb 0.00 in0.0 mm 0.00 in0.0 mm 0.00 in0.0 mm
05:10 PM 48.4°F9.1°C 43.5°F6.4°C 83% 13.2 mph NE21.2 kmh NE 16.0 mph25.7 kmh 30.39 in1029.1 mb 0.00 in0.0 mm 0.00 in0.0 mm 0.00 in0.0 mm
05:20 PM 48.0°F8.9°C 43.1°F6.2°C 83% 13.5 mph NE21.7 kmh NE 16.0 mph25.7 kmh 30.39 in1029.1 mb 0.00 in0.0 mm 0.00 in0.0 mm 0.00 in0.0 mm
05:30 PM 47.8°F8.8°C 42.9°F6.1°C 83% 11.8 mph NE19.0 kmh NE 15.0 mph24.1 kmh 30.39 in1029.1 mb 0.00 in0.0 mm 0.00 in0.0 mm 0.00 in0.0 mm
05:40 PM 47.7°F8.7°C 42.8°F6.0°C 83% 13.2 mph NE21.2 kmh NE 15.0 mph24.1 kmh 30.39 in1029.1 mb 0.00 in0.0 mm 0.00 in0.0 mm 0.00 in0.0 mm
05:50 PM 47.5°F8.6°C 42.6°F5.9°C 83% 14.1 mph NE22.7 kmh NE 16.0 mph25.7 kmh 30.39 in1029.1 mb 0.00 in0.0 mm 0.00 in0.0 mm 0.00 in0.0 mm
06:00 PM 47.5°F8.6°C 42.6°F5.9°C 83% 13.2 mph NNE21.2 kmh NNE 13.3 mph21.4 kmh 30.39 in1029.1 mb 0.00 in0.0 mm 0.00 in0.0 mm 0.00 in0.0 mm
06:10 PM 47.3°F8.5°C 42.4°F5.8°C 83% 11.7 mph NE18.8 kmh NE 12.5 mph20.1 kmh 30.40 in1029.5 mb 0.00 in0.0 mm 0.00 in0.0 mm 0.00 in0.0 mm
06:20 PM 47.3°F8.5°C 42.4°F5.8°C 83% 11.9 mph NNE19.2 kmh NNE 13.3 mph21.4 kmh 30.39 in1029.1 mb 0.00 in0.0 mm 0.00 in0.0 mm 0.00 in0.0 mm
06:30 PM 47.1°F8.4°C 42.5°F5.8°C 84% 12.5 mph NE20.1 kmh NE 14.3 mph23.0 kmh 30.40 in1029.5 mb 0.00 in0.0 mm 0.00 in0.0 mm 0.00 in0.0 mm
06:40 PM 46.9°F8.3°C 42.4°F5.8°C 84% 13.4 mph NNE21.6 kmh NNE 15.0 mph24.1 kmh 30.40 in1029.5 mb 0.00 in0.0 mm 0.00 in0.0 mm 0.00 in0.0 mm
06:50 PM 46.8°F8.2°C 42.2°F5.7°C 84% 11.5 mph NE18.5 kmh NE 15.0 mph24.1 kmh 30.40 in1029.5 mb 0.00 in0.0 mm 0.00 in0.0 mm 0.00 in0.0 mm
07:00 PM 46.8°F8.2°C 42.2°F5.7°C 84% 11.4 mph NNE18.3 kmh NNE 15.0 mph24.1 kmh 30.40 in1029.5 mb 0.00 in0.0 mm 0.00 in0.0 mm 0.00 in0.0 mm
07:10 PM 46.6°F8.1°C 42.0°F5.6°C 84% 11.1 mph NE17.9 kmh NE 15.0 mph24.1 kmh 30.40 in1029.5 mb 0.00 in0.0 mm 0.00 in0.0 mm 0.00 in0.0 mm
07:20 PM 46.6°F8.1°C 42.0°F5.6°C 84% 11.3 mph N18.2 kmh N 15.0 mph24.1 kmh 30.39 in1029.1 mb 0.00 in0.0 mm 0.00 in0.0 mm 0.00 in0.0 mm
07:30 PM 46.4°F8.0°C 42.1°F5.6°C 85% 11.2 mph N18.0 kmh N 12.5 mph20.1 kmh 30.39 in1029.1 mb 0.00 in0.0 mm 0.00 in0.0 mm 0.00 in0.0 mm
07:40 PM 46.4°F8.0°C 42.1°F5.6°C 85% 9.0 mph NE14.5 kmh NE 10.1 mph16.3 kmh 30.39 in1029.1 mb 0.00 in0.0 mm 0.00 in0.0 mm 0.00 in0.0 mm
07:50 PM 46.2°F7.9°C 42.0°F5.6°C 85% 11.0 mph NE17.7 kmh NE 11.8 mph19.0 kmh 30.39 in1029.1 mb 0.00 in0.0 mm 0.00 in0.0 mm 0.00 in0.0 mm
08:00 PM 46.0°F7.8°C 41.8°F5.4°C 85% 10.9 mph NE17.5 kmh NE 12.5 mph20.1 kmh 30.40 in1029.5 mb 0.00 in0.0 mm 0.00 in0.0 mm 0.00 in0.0 mm
08:10 PM 46.0°F7.8°C 41.8°F5.4°C 85% 9.0 mph NE14.5 kmh NE 12.5 mph20.1 kmh 30.40 in1029.5 mb 0.00 in0.0 mm 0.00 in0.0 mm 0.00 in0.0 mm
08:20 PM 45.9°F7.7°C 41.3°F5.2°C 84% 11.0 mph NE17.7 kmh NE 14.3 mph23.0 kmh 30.40 in1029.5 mb 0.00 in0.0 mm 0.00 in0.0 mm 0.00 in0.0 mm
08:30 PM 45.9°F7.7°C 41.6°F5.3°C 85% 8.5 mph N13.7 kmh N 9.1 mph14.6 kmh 30.40 in1029.5 mb 0.00 in0.0 mm 0.00 in0.0 mm 0.00 in0.0 mm
08:40 PM 45.9°F7.7°C 41.6°F5.3°C 85% 11.2 mph NNE18.0 kmh NNE 14.3 mph23.0 kmh 30.41 in1029.8 mb 0.00 in0.0 mm 0.00 in0.0 mm 0.00 in0.0 mm
08:50 PM 45.9°F7.7°C 41.6°F5.3°C 85% 10.5 mph NE16.9 kmh NE 12.5 mph20.1 kmh 30.41 in1029.8 mb 0.00 in0.0 mm 0.00 in0.0 mm 0.00 in0.0 mm
09:00 PM 45.9°F7.7°C 41.9°F5.5°C 86% 10.4 mph NNE16.7 kmh NNE 15.0 mph24.1 kmh 30.41 in1029.8 mb 0.00 in0.0 mm 0.00 in0.0 mm 0.00 in0.0 mm
09:10 PM 45.9°F7.7°C 41.9°F5.5°C 86% 8.2 mph NE13.2 kmh NE 11.8 mph19.0 kmh 30.41 in1029.8 mb 0.00 in0.0 mm 0.00 in0.0 mm 0.00 in0.0 mm
09:20 PM 45.9°F7.7°C 41.6°F5.3°C 85% 11.2 mph NNE18.0 kmh NNE 12.5 mph20.1 kmh 30.41 in1029.8 mb 0.00 in0.0 mm 0.00 in0.0 mm 0.00 in0.0 mm
09:30 PM 45.7°F7.6°C 41.4°F5.2°C 85% 12.1 mph NE19.5 kmh NE 12.5 mph20.1 kmh 30.41 in1029.8 mb 0.00 in0.0 mm 0.00 in0.0 mm 0.00 in0.0 mm
09:40 PM 45.7°F7.6°C 41.7°F5.4°C 86% 9.1 mph NE14.6 kmh NE 10.1 mph16.3 kmh 30.41 in1029.8 mb 0.00 in0.0 mm 0.00 in0.0 mm 0.00 in0.0 mm
09:50 PM 45.7°F7.6°C 41.7°F5.4°C 86% 9.7 mph NE15.6 kmh NE 10.8 mph17.4 kmh 30.41 in1029.8 mb 0.00 in0.0 mm 0.00 in0.0 mm 0.00 in0.0 mm
10:00 PM 45.5°F7.5°C 41.6°F5.3°C 86% 9.5 mph NE15.3 kmh NE 10.1 mph16.3 kmh 30.41 in1029.8 mb 0.00 in0.0 mm 0.00 in0.0 mm 0.00 in0.0 mm
10:10 PM 45.5°F7.5°C 41.6°F5.3°C 86% 11.6 mph NE18.7 kmh NE 10.8 mph17.4 kmh 30.41 in1029.8 mb 0.00 in0.0 mm 0.00 in0.0 mm 0.00 in0.0 mm
10:20 PM 45.5°F7.5°C 41.6°F5.3°C 86% 9.5 mph N15.3 kmh N 9.1 mph14.6 kmh 30.41 in1029.8 mb 0.00 in0.0 mm 0.00 in0.0 mm 0.00 in0.0 mm
10:30 PM 45.3°F7.4°C 41.1°F5.1°C 85% 9.7 mph NE15.6 kmh NE 10.8 mph17.4 kmh 30.41 in1029.8 mb 0.00 in0.0 mm 0.00 in0.0 mm 0.00 in0.0 mm
10:40 PM 45.3°F7.4°C 41.1°F5.1°C 85% 10.1 mph ENE16.3 kmh ENE 15.0 mph24.1 kmh 30.41 in1029.8 mb 0.00 in0.0 mm 0.00 in0.0 mm 0.00 in0.0 mm
10:50 PM 45.1°F7.3°C 40.9°F4.9°C 85% 11.2 mph NE18.0 kmh NE 12.5 mph20.1 kmh 30.41 in1029.8 mb 0.00 in0.0 mm 0.00 in0.0 mm 0.00 in0.0 mm
11:00 PM 45.1°F7.3°C 40.9°F4.9°C 85% 10.8 mph ENE17.4 kmh ENE 12.5 mph20.1 kmh 30.41 in1029.8 mb 0.00 in0.0 mm 0.00 in0.0 mm 0.00 in0.0 mm
11:10 PM 45.1°F7.3°C 40.9°F4.9°C 85% 10.6 mph NE17.1 kmh NE 12.5 mph20.1 kmh 30.41 in1029.8 mb 0.00 in0.0 mm 0.00 in0.0 mm 0.00 in0.0 mm
11:20 PM 45.0°F7.2°C 40.7°F4.8°C 85% 10.8 mph NNE17.4 kmh NNE 13.3 mph21.4 kmh 30.40 in1029.5 mb 0.00 in0.0 mm 0.00 in0.0 mm 0.00 in0.0 mm
11:30 PM 45.0°F7.2°C 40.7°F4.8°C 85% 9.9 mph NE15.9 kmh NE 10.8 mph17.4 kmh 30.41 in1029.8 mb 0.00 in0.0 mm 0.00 in0.0 mm 0.00 in0.0 mm
11:40 PM 45.0°F7.2°C 40.7°F4.8°C 85% 9.3 mph NE15.0 kmh NE 10.8 mph17.4 kmh 30.40 in1029.5 mb 0.00 in0.0 mm 0.00 in0.0 mm 0.00 in0.0 mm
11:50 PM 45.0°F7.2°C 40.7°F4.8°C 85% 11.3 mph NNE18.2 kmh NNE 12.5 mph20.1 kmh 30.40 in1029.5 mb 0.00 in0.0 mm 0.00 in0.0 mm 0.00 in0.0 mm